Skip Navigation Links
NOAA logo - Click to go to the NOAA homepage
NOAA's National Weather Service
Alaska Aviation Weather Unit
  NWS logo - Click to go to the NWS homepage
Left Navbar Graphic     08 AKDT = 16 GMT

   
NOAA is celebrating 200 years of science, service, and stewardship. Visit the NOAA 200th celebration Web site to learn more.
USA.gov is the U.S. Government's official Web portal to all Federal, state and local government Web resources and services.
Facebook
NWS on Facebook

Important Change Regarding the AAWU Web Presence

 

Over the last several months, the AAWU has been working to navigate its webpages to a nationally supported server. Security, as well as other needs, have necessitated the change.  In the process, we have made an effort to enhance the functionality of our website, as well as some of our products. As of June 20, 2017, aawu.arh.noaa.gov will be discontinued. The new AAWU web address is weather.gov/aawu. It is now live and will run in-parallel with the old site until it is discontinued. Please send any feedback or questions regarding the new webpages to nws.ar.aawu.webauthors@noaa.gov.  Thank you for your patience during this time of transition.
AAWU Home :: Display TAF Add Bookmark
TAF PAED 291630Z 2916/3017 33006KT 9999 VCSH BKN006 BKN060
      620304 QNH2980INS
      TEMPO 2916/2917 8000 -SHRA BKN008
      BECMG 2917/2918 VRB06KT 9000 -SHRA BKN015 620304 QNH2986INS
      TX11/2923Z TN05/3011Z=

PAED 291008Z AUTO 29005KT 10SM -RA BKN025 OVC050 07/06 A2983= PAED 291018Z AUTO 32007KT 10SM -RA BKN042 OVC055 07/07 A2983= METAR PAED 291058Z AUTO 34007KT 10SM -DZ SCT038 OVC055 07/07 A2983= PAED 291108Z AUTO 33005KT 10SM -DZ BKN037 OVC055 07/06 A2983= PAED 291115Z AUTO 34007KT 10SM FEW035 OVC060 07/06 A2983= PAED 291128Z AUTO 34008KT 10SM -DZ FEW031 OVC060 07/06 A2983= PAED 291138Z AUTO 34006KT 10SM OVC060 07/05 A2983= METAR PAED 291158Z AUTO 33005KT 10SM OVC055 06/05 A2983= PAED 291218Z AUTO 32006KT 10SM OVC050 06/05 A2983= PAED 291220Z AUTO 32007KT 10SM -DZ FEW045 OVC055 06/05 A2983= PAED 291230Z AUTO 32007KT 10SM -DZ OVC050 06/06 A2983= PAED 291249Z AUTO 32006KT 10SM FEW027 OVC049 06/06 A2983= PAED 291256Z AUTO 33005KT 10SM -DZ FEW028 BKN045 OVC050 06/06 A2982= METAR PAED 291258Z AUTO VRB05KT 10SM -DZ FEW028 BKN045 OVC050 06/06 A2982= PAED 291319Z AUTO 03003KT 10SM FEW021 SCT027 OVC042 06/06 A2983= PAED 291339Z AUTO 00000KT 10SM FEW042 SCT050 06/05 A2983= METAR PAED 291358Z AUTO 00000KT 10SM SCT045 BKN055 06/06 A2983= PAED 291408Z AUTO 00000KT 10SM FEW019 SCT042 BKN049 06/06 A2983= PAED 291428Z AUTO 00000KT 10SM FEW039 OVC055 06/06 A2983= PAED 291448Z AUTO 00000KT 10SM BKN049 OVC060 06/06 A2983= PAED 291453Z AUTO 00000KT 10SM UP FEW027 BKN047 OVC060 06/06 A2983= METAR PAED 291458Z AUTO 00000KT 10SM UP FEW028 BKN049 OVC060 06/06 A2983= PAED 291538Z AUTO 00000KT 10SM -DZ BKN033 OVC044 06/06 A2983= PAED 291548Z AUTO 00000KT 10SM -RA SCT027 OVC043 07/06 A2983= METAR PAED 291558Z AUTO 00000KT 10SM -DZ FEW006 BKN028 BKN041 OVC048 07/07 A2984= PAED 291603Z AUTO 00000KT 10SM SCT006 BKN020 BKN028 OVC044 07/07 A2984= PAED 291613Z AUTO 00000KT 10SM SCT006 BKN045 OVC060 07/07 A2984= PAED 291623Z AUTO 00000KT 10SM BKN006 OVC060 07/07 A2984= PAED 291633Z AUTO 00000KT 10SM SCT006 BKN060 07/07 A2984=
 Alaska TAF Map

NOAA's National Weather Service
Alaska Aviation Weather Unit
6930 Sand Lake Road
Anchorage, AK 99502-1845
Disclaimer
Credits
Glossary
Privacy Policy
About Us
Career Opportunities
Contact AAWU Internet Services Site last modified: April, 17th 2012